createdAt,value
2018-06-15T00:00:19.322Z,0.00
2018-06-15T00:01:19.381Z,0.00
2018-06-15T00:02:19.405Z,0.00
2018-06-15T00:03:19.458Z,0.00
2018-06-15T00:04:19.496Z,0.00
2018-06-15T00:05:19.522Z,0.00
2018-06-15T00:06:19.664Z,0.00
2018-06-15T00:07:19.608Z,0.00
2018-06-15T00:08:19.647Z,0.00
2018-06-15T00:09:19.699Z,0.00
2018-06-15T00:10:19.741Z,0.00
2018-06-15T00:11:19.768Z,0.00
2018-06-15T00:12:19.921Z,0.00
2018-06-15T00:13:19.852Z,0.00
2018-06-15T00:14:19.913Z,0.00
2018-06-15T00:15:19.937Z,0.00
2018-06-15T00:16:19.985Z,0.00
2018-06-15T00:17:20.018Z,0.00
2018-06-15T00:18:20.086Z,0.00
2018-06-15T00:19:20.094Z,0.00
2018-06-15T00:20:20.145Z,0.00
2018-06-15T00:21:20.175Z,0.00
2018-06-15T00:22:20.353Z,0.00
2018-06-15T00:23:20.263Z,0.00
2018-06-15T00:24:20.312Z,0.00
2018-06-15T00:25:20.344Z,0.00
2018-06-15T00:26:20.393Z,0.00
2018-06-15T00:27:20.433Z,0.00
2018-06-15T00:28:20.667Z,0.00
2018-06-15T00:29:20.502Z,0.00
2018-06-15T00:30:20.545Z,0.00
2018-06-15T00:31:20.598Z,0.00
2018-06-15T00:32:20.627Z,0.00
2018-06-15T00:33:20.680Z,0.00
2018-06-15T00:34:20.733Z,0.00
2018-06-15T00:35:20.772Z,0.00
2018-06-15T00:36:20.802Z,0.00
2018-06-15T00:37:20.842Z,0.00
2018-06-15T00:38:20.987Z,0.00
2018-06-15T00:39:20.928Z,0.00
2018-06-15T00:40:20.963Z,0.00
2018-06-15T00:41:21.005Z,0.00
2018-06-15T00:42:21.059Z,0.00
2018-06-15T00:43:21.172Z,0.00
2018-06-15T00:44:21.125Z,0.00
2018-06-15T00:45:21.166Z,0.00
2018-06-15T00:46:21.209Z,0.00
2018-06-15T00:47:21.248Z,0.00
2018-06-15T00:48:21.292Z,0.00
2018-06-15T00:49:21.544Z,0.00
2018-06-15T00:50:21.365Z,0.00
2018-06-15T00:51:21.412Z,0.00
2018-06-15T00:52:21.458Z,0.00
2018-06-15T00:53:21.506Z,0.00
2018-06-15T00:54:21.542Z,0.00
2018-06-15T00:55:21.667Z,0.00
2018-06-15T00:56:21.726Z,0.00
2018-06-15T00:57:21.656Z,0.00
2018-06-15T00:58:21.681Z,0.00
2018-06-15T00:59:21.738Z,0.00
2018-06-15T01:00:21.765Z,0.00
2018-06-15T01:01:21.810Z,0.00
2018-06-15T01:02:21.953Z,0.00
2018-06-15T01:03:21.905Z,0.00
2018-06-15T01:04:21.934Z,0.00
2018-06-15T01:05:21.982Z,0.00
2018-06-15T01:06:22.019Z,0.00
2018-06-15T01:07:22.053Z,0.00
2018-06-15T01:08:22.090Z,0.00
2018-06-15T01:09:22.131Z,0.00
2018-06-15T01:10:22.191Z,0.00
2018-06-15T01:11:22.212Z,0.00
2018-06-15T01:12:22.267Z,0.00
2018-06-15T01:13:22.311Z,0.00
2018-06-15T01:14:22.359Z,0.00
2018-06-15T01:15:22.378Z,0.00
2018-06-15T01:16:22.436Z,0.00
2018-06-15T01:17:22.561Z,0.00
2018-06-15T01:18:22.702Z,0.00
2018-06-15T01:19:22.535Z,0.00
2018-06-15T01:20:22.593Z,0.00
2018-06-15T01:21:22.636Z,0.00
2018-06-15T01:22:22.669Z,0.00
2018-06-15T01:23:22.703Z,0.00
2018-06-15T01:24:22.753Z,0.00
2018-06-15T01:25:22.794Z,0.00
2018-06-15T01:26:22.839Z,0.00
2018-06-15T01:27:22.871Z,0.00
2018-06-15T01:28:23.017Z,0.00
2018-06-15T01:29:22.959Z,0.00
2018-06-15T01:30:22.997Z,0.00
2018-06-15T01:31:23.036Z,0.00
2018-06-15T01:32:23.068Z,0.00
2018-06-15T01:33:23.104Z,0.00
2018-06-15T01:34:23.397Z,0.00
2018-06-15T01:35:23.200Z,0.00
2018-06-15T01:36:23.229Z,0.00
2018-06-15T01:37:23.274Z,0.00
2018-06-15T01:38:23.334Z,0.00
2018-06-15T01:39:23.466Z,0.00
2018-06-15T01:40:23.387Z,0.00
2018-06-15T01:41:23.436Z,0.00
2018-06-15T01:42:23.469Z,0.00
2018-06-15T01:43:23.513Z,0.00
2018-06-15T01:44:23.553Z,0.00
2018-06-15T01:45:23.606Z,0.00
2018-06-15T01:46:23.759Z,0.00
2018-06-15T01:47:23.689Z,0.00
2018-06-15T01:48:23.723Z,0.00
2018-06-15T01:49:23.758Z,0.00
2018-06-15T01:50:23.810Z,0.00
2018-06-15T01:51:23.855Z,0.00
2018-06-15T01:52:24.009Z,0.00
2018-06-15T01:53:23.936Z,0.00
2018-06-15T01:54:23.957Z,0.00
2018-06-15T01:55:24.006Z,0.00
2018-06-15T01:56:24.051Z,0.00
2018-06-15T01:57:24.295Z,0.00
2018-06-15T01:58:24.134Z,0.00
2018-06-15T01:59:24.161Z,0.00
2018-06-15T02:00:24.225Z,0.00
2018-06-15T02:01:24.406Z,0.00
2018-06-15T02:02:24.292Z,0.00
2018-06-15T02:03:24.346Z,0.00
2018-06-15T02:04:24.366Z,0.00
2018-06-15T02:05:24.404Z,0.00
2018-06-15T02:06:24.451Z,0.00
2018-06-15T02:07:24.609Z,0.00
2018-06-15T02:08:24.729Z,0.00
2018-06-15T02:09:24.582Z,0.00
2018-06-15T02:10:24.607Z,0.00
2018-06-15T02:11:24.647Z,0.00
2018-06-15T02:12:24.693Z,0.00
2018-06-15T02:13:24.778Z,0.00
2018-06-15T02:14:24.773Z,0.00
2018-06-15T02:15:24.831Z,0.00
2018-06-15T02:16:24.866Z,0.00
2018-06-15T02:17:24.899Z,0.00
2018-06-15T02:18:25.048Z,0.00
2018-06-15T02:19:24.975Z,0.00
2018-06-15T02:20:25.015Z,0.00
2018-06-15T02:21:25.080Z,0.00
2018-06-15T02:22:25.113Z,0.00
2018-06-15T02:23:25.163Z,0.00
2018-06-15T02:24:25.284Z,0.00
2018-06-15T02:25:25.232Z,0.00
2018-06-15T02:26:25.262Z,0.00
2018-06-15T02:27:25.299Z,0.00
2018-06-15T02:28:25.356Z,0.00
2018-06-15T02:29:25.488Z,0.00
2018-06-15T02:30:25.420Z,0.00
2018-06-15T02:31:25.462Z,0.00
2018-06-15T02:32:25.507Z,0.00
2018-06-15T02:33:25.562Z,0.00
2018-06-15T02:34:25.604Z,0.00
2018-06-15T02:35:25.736Z,0.00
2018-06-15T02:36:25.688Z,0.00
2018-06-15T02:37:25.722Z,0.00
2018-06-15T02:38:25.781Z,0.00
2018-06-15T02:39:25.810Z,0.00
2018-06-15T02:40:25.832Z,0.00
2018-06-15T02:41:25.884Z,0.00
2018-06-15T02:42:25.930Z,0.00
2018-06-15T02:43:25.977Z,0.00
2018-06-15T02:44:25.991Z,0.00
2018-06-15T02:45:26.323Z,0.00
2018-06-15T02:46:26.172Z,0.00
2018-06-15T02:47:26.129Z,0.00
2018-06-15T02:48:26.173Z,0.00
2018-06-15T02:49:26.214Z,0.00
2018-06-15T02:50:26.234Z,0.00
2018-06-15T02:51:26.279Z,0.00
2018-06-15T02:52:26.529Z,0.00
2018-06-15T02:53:26.379Z,0.00
2018-06-15T02:54:26.417Z,0.00
2018-06-15T02:55:26.447Z,0.00
2018-06-15T02:56:26.479Z,0.00
2018-06-15T02:57:26.635Z,0.00
2018-06-15T02:58:26.559Z,0.00
2018-06-15T02:59:26.603Z,0.00
2018-06-15T03:00:26.645Z,0.00
2018-06-15T03:01:26.701Z,0.00
2018-06-15T03:02:26.755Z,0.00
2018-06-15T03:03:26.973Z,0.00
2018-06-15T03:04:26.832Z,0.00
2018-06-15T03:05:26.861Z,0.00
2018-06-15T03:06:26.901Z,0.00
2018-06-15T03:07:26.932Z,0.00
2018-06-15T03:08:26.986Z,0.00
2018-06-15T03:09:27.129Z,0.00
2018-06-15T03:10:27.056Z,0.00
2018-06-15T03:11:27.108Z,0.00
2018-06-15T03:12:27.158Z,0.00
2018-06-15T03:13:27.176Z,0.00
2018-06-15T03:14:27.231Z,0.00
2018-06-15T03:15:27.478Z,0.00
2018-06-15T03:16:27.292Z,0.00
2018-06-15T03:17:27.333Z,0.00
2018-06-15T03:18:27.370Z,0.00
2018-06-15T03:19:27.428Z,0.00
2018-06-15T03:20:27.558Z,0.00
2018-06-15T03:21:27.493Z,0.00
2018-06-15T03:22:27.553Z,0.00
2018-06-15T03:23:27.574Z,0.00
2018-06-15T03:24:27.649Z,0.00
2018-06-15T03:25:27.671Z,0.00
2018-06-15T03:26:27.925Z,0.00
2018-06-15T03:27:27.751Z,0.00
2018-06-15T03:28:27.794Z,0.00
2018-06-15T03:29:27.835Z,0.00
2018-06-15T03:30:27.874Z,0.00
2018-06-15T03:31:27.928Z,0.00
2018-06-15T03:32:28.067Z,0.00
2018-06-15T03:33:27.998Z,0.00
2018-06-15T03:34:28.046Z,0.00
2018-06-15T03:35:28.075Z,0.00
2018-06-15T03:36:28.122Z,0.00
2018-06-15T03:37:28.141Z,0.00
2018-06-15T03:38:28.395Z,0.00
2018-06-15T03:39:28.235Z,0.00
2018-06-15T03:40:28.282Z,0.00
2018-06-15T03:41:28.308Z,0.00
2018-06-15T03:42:28.365Z,0.00
2018-06-15T03:43:28.394Z,0.00
2018-06-15T03:44:28.527Z,0.00
2018-06-15T03:45:28.484Z,0.00
2018-06-15T03:46:28.507Z,0.00
2018-06-15T03:47:28.552Z,0.00
2018-06-15T03:48:28.587Z,0.00
2018-06-15T03:49:28.648Z,0.00
2018-06-15T03:50:28.670Z,0.00
2018-06-15T03:51:28.754Z,0.00
2018-06-15T03:52:28.779Z,0.00
2018-06-15T03:53:28.798Z,0.00
2018-06-15T03:54:28.948Z,0.00
2018-06-15T03:55:28.877Z,0.00
2018-06-15T03:56:28.942Z,0.00
2018-06-15T03:57:28.976Z,0.00
2018-06-15T03:58:29.010Z,0.00
2018-06-15T03:59:29.047Z,0.00
2018-06-15T04:00:29.292Z,0.00
2018-06-15T04:01:29.139Z,0.00
2018-06-15T04:02:29.178Z,0.00
2018-06-15T04:03:29.200Z,0.00
2018-06-15T04:04:29.262Z,0.00
2018-06-15T04:05:29.404Z,0.00
2018-06-15T04:06:29.343Z,0.00
2018-06-15T04:07:29.368Z,0.00
2018-06-15T04:08:29.403Z,0.00
2018-06-15T04:09:29.465Z,0.00
2018-06-15T04:10:29.487Z,0.00
2018-06-15T04:11:29.533Z,0.00
2018-06-15T04:12:29.591Z,0.00
2018-06-15T04:13:29.607Z,0.00
2018-06-15T04:14:29.650Z,0.00
2018-06-15T04:15:29.811Z,0.00
2018-06-15T04:16:29.758Z,0.00
2018-06-15T04:17:29.786Z,0.00
2018-06-15T04:18:29.811Z,0.00
2018-06-15T04:19:29.856Z,0.00
2018-06-15T04:20:29.909Z,0.00
2018-06-15T04:21:30.135Z,0.00
2018-06-15T04:22:29.978Z,0.00
2018-06-15T04:23:30.035Z,0.00
2018-06-15T04:24:30.070Z,0.00
2018-06-15T04:25:30.107Z,0.00
2018-06-15T04:26:30.143Z,0.00
2018-06-15T04:27:30.300Z,0.00
2018-06-15T04:28:30.237Z,0.00
2018-06-15T04:29:30.265Z,0.00
2018-06-15T04:30:30.323Z,0.00
2018-06-15T04:31:30.361Z,0.00
2018-06-15T04:32:30.407Z,0.00
2018-06-15T04:33:30.626Z,0.00
2018-06-15T04:34:30.482Z,0.00
2018-06-15T04:35:30.526Z,0.00
2018-06-15T04:36:30.546Z,0.00
2018-06-15T04:37:30.583Z,0.00
2018-06-15T04:38:30.629Z,0.00
2018-06-15T04:39:30.768Z,0.00
2018-06-15T04:40:30.721Z,0.00
2018-06-15T04:41:30.769Z,0.00
2018-06-15T04:42:30.805Z,0.00
2018-06-15T04:43:30.827Z,0.00
2018-06-15T04:44:30.870Z,0.00
2018-06-15T04:45:31.121Z,0.00
2018-06-15T04:46:30.973Z,0.00
2018-06-15T04:47:31.010Z,0.00
2018-06-15T04:48:31.045Z,0.00
2018-06-15T04:49:31.083Z,0.00
2018-06-15T04:50:31.113Z,0.00
2018-06-15T04:51:31.250Z,0.00
2018-06-15T04:52:31.194Z,0.00
2018-06-15T04:53:31.253Z,0.00
2018-06-15T04:54:31.284Z,0.00
2018-06-15T04:55:31.311Z,0.00
2018-06-15T04:56:31.365Z,0.00
2018-06-15T04:57:31.597Z,0.00
2018-06-15T04:58:31.453Z,0.00
2018-06-15T04:59:31.477Z,0.00
2018-06-15T05:00:31.528Z,0.00
2018-06-15T05:01:31.562Z,0.00
2018-06-15T05:02:31.594Z,0.00
2018-06-15T05:03:31.642Z,0.00
2018-06-15T05:04:31.696Z,0.00
2018-06-15T05:05:31.730Z,0.00
2018-06-15T05:06:31.775Z,0.00
2018-06-15T05:07:31.928Z,0.00
2018-06-15T05:08:32.055Z,0.00
2018-06-15T05:09:31.879Z,0.00
2018-06-15T05:10:31.937Z,0.00
2018-06-15T05:11:31.966Z,0.00
2018-06-15T05:12:32.019Z,0.00
2018-06-15T05:13:32.047Z,0.00
2018-06-15T05:14:32.185Z,0.00
2018-06-15T05:15:32.120Z,0.00
2018-06-15T05:16:32.177Z,0.00
2018-06-15T05:17:32.205Z,0.00
2018-06-15T05:18:32.251Z,0.00
2018-06-15T05:19:32.298Z,0.00
2018-06-15T05:20:32.437Z,0.00
2018-06-15T05:21:32.385Z,0.00
2018-06-15T05:22:32.419Z,0.00
2018-06-15T05:23:32.450Z,0.00
2018-06-15T05:24:32.496Z,0.00
2018-06-15T05:25:32.728Z,0.00
2018-06-15T05:26:32.595Z,0.00
2018-06-15T05:27:32.625Z,0.00
2018-06-15T05:28:32.666Z,0.00
2018-06-15T05:29:32.705Z,0.00
2018-06-15T05:30:32.748Z,0.00
2018-06-15T05:31:32.842Z,0.00
2018-06-15T05:32:32.836Z,0.00
2018-06-15T05:33:32.874Z,0.00
2018-06-15T05:34:32.924Z,0.00
2018-06-15T05:35:32.953Z,0.00
2018-06-15T05:36:33.106Z,0.00
2018-06-15T05:37:33.246Z,0.00
2018-06-15T05:38:33.066Z,0.00
2018-06-15T05:39:33.119Z,0.00
2018-06-15T05:40:33.169Z,0.00
2018-06-15T05:41:33.196Z,0.00
2018-06-15T05:42:33.290Z,0.00
2018-06-15T05:43:33.364Z,0.00
2018-06-15T05:44:33.316Z,0.00
2018-06-15T05:45:33.361Z,0.00
2018-06-15T05:46:33.397Z,0.00
2018-06-15T05:47:33.424Z,0.00
2018-06-15T05:48:33.700Z,0.00
2018-06-15T05:49:33.516Z,0.00
2018-06-15T05:50:33.550Z,0.00
2018-06-15T05:51:33.609Z,0.00
2018-06-15T05:52:33.647Z,0.00
2018-06-15T05:53:33.694Z,0.00
2018-06-15T05:54:33.823Z,0.00
2018-06-15T05:55:33.772Z,0.00
2018-06-15T05:56:33.805Z,0.00
2018-06-15T05:57:33.844Z,0.00
2018-06-15T05:58:33.891Z,0.00
2018-06-15T05:59:33.919Z,0.00
2018-06-15T06:00:33.954Z,0.00
2018-06-15T06:01:33.994Z,0.00
2018-06-15T06:02:34.048Z,0.00
2018-06-15T06:03:34.099Z,0.00
2018-06-15T06:04:34.342Z,0.00
2018-06-15T06:05:34.256Z,0.00
2018-06-15T06:06:34.210Z,0.00
2018-06-15T06:07:34.263Z,0.00
2018-06-15T06:08:34.299Z,0.00
2018-06-15T06:09:34.328Z,0.00
2018-06-15T06:10:34.362Z,0.00
2018-06-15T06:11:34.626Z,0.00
2018-06-15T06:12:34.491Z,0.00
2018-06-15T06:13:34.496Z,0.00
2018-06-15T06:14:34.539Z,0.00
2018-06-15T06:15:34.563Z,0.00
2018-06-15T06:16:34.710Z,0.00
2018-06-15T06:17:34.667Z,0.00
2018-06-15T06:18:34.695Z,0.00
2018-06-15T06:19:34.737Z,0.00
2018-06-15T06:20:34.783Z,0.00
2018-06-15T06:21:34.822Z,0.00
2018-06-15T06:22:34.851Z,0.00
2018-06-15T06:23:34.891Z,0.00
2018-06-15T06:24:34.942Z,0.00
2018-06-15T06:25:34.984Z,0.00
2018-06-15T06:26:35.235Z,0.00
2018-06-15T06:27:35.153Z,0.00
2018-06-15T06:28:35.092Z,0.00
2018-06-15T06:29:35.129Z,0.00
2018-06-15T06:30:35.193Z,0.00
2018-06-15T06:31:35.224Z,0.00
2018-06-15T06:32:35.278Z,0.00
2018-06-15T06:33:35.505Z,0.00
2018-06-15T06:34:35.358Z,0.00
2018-06-15T06:35:35.379Z,0.00
2018-06-15T06:36:35.439Z,0.00
2018-06-15T06:37:35.455Z,0.00
2018-06-15T06:38:35.602Z,0.00
2018-06-15T06:39:35.549Z,0.00
2018-06-15T06:40:35.604Z,0.00
2018-06-15T06:41:35.620Z,0.00
2018-06-15T06:42:35.670Z,0.00
2018-06-15T06:43:35.723Z,0.00
2018-06-15T06:44:35.753Z,0.00
2018-06-15T06:45:35.797Z,0.00
2018-06-15T06:46:35.835Z,0.00
2018-06-15T06:47:35.863Z,0.00
2018-06-15T06:48:36.115Z,0.00
2018-06-15T06:49:35.956Z,0.00
2018-06-15T06:50:36.056Z,0.00
2018-06-15T06:51:36.043Z,0.00
2018-06-15T06:52:36.089Z,0.00
2018-06-15T06:53:36.222Z,0.00
2018-06-15T06:54:36.173Z,0.00
2018-06-15T06:55:36.204Z,0.00
2018-06-15T06:56:36.239Z,0.00
2018-06-15T06:57:36.281Z,0.00
2018-06-15T06:58:36.379Z,0.00
2018-06-15T06:59:36.371Z,0.00
2018-06-15T07:00:36.410Z,0.00
2018-06-15T07:01:36.454Z,0.00
2018-06-15T07:02:36.500Z,0.00
2018-06-15T07:03:36.731Z,0.00
2018-06-15T07:04:36.668Z,0.00
2018-06-15T07:05:36.595Z,0.00
2018-06-15T07:06:36.651Z,0.00
2018-06-15T07:07:36.689Z,0.00
2018-06-15T07:08:36.713Z,0.00
2018-06-15T07:09:36.768Z,0.00
2018-06-15T07:10:36.791Z,0.00
2018-06-15T07:11:36.850Z,0.00
2018-06-15T07:12:36.874Z,0.00
2018-06-15T07:13:36.924Z,0.00
2018-06-15T07:14:37.184Z,0.00
2018-06-15T07:15:37.004Z,0.00
2018-06-15T07:16:37.059Z,0.00
2018-06-15T07:17:37.093Z,0.00
2018-06-15T07:18:37.141Z,0.00
2018-06-15T07:19:37.273Z,0.00
2018-06-15T07:20:37.213Z,0.00
2018-06-15T07:21:37.304Z,0.00
2018-06-15T07:22:37.283Z,0.00
2018-06-15T07:23:37.398Z,0.00
2018-06-15T07:24:37.380Z,0.00
2018-06-15T07:25:37.604Z,0.00
2018-06-15T07:26:37.471Z,0.00
2018-06-15T07:27:37.491Z,0.00
2018-06-15T07:28:37.529Z,0.00
2018-06-15T07:29:37.597Z,0.00
2018-06-15T07:30:37.606Z,0.00
2018-06-15T07:31:37.750Z,0.00
2018-06-15T07:32:37.722Z,0.00
2018-06-15T07:33:37.734Z,0.00
2018-06-15T07:34:37.774Z,0.00
2018-06-15T07:35:37.815Z,0.00
2018-06-15T07:36:37.866Z,0.00
2018-06-15T07:37:38.107Z,0.00
2018-06-15T07:38:37.949Z,0.00
2018-06-15T07:39:37.979Z,0.00
2018-06-15T07:40:38.029Z,0.00
2018-06-15T07:41:38.073Z,0.00
2018-06-15T07:42:38.220Z,0.00
2018-06-15T07:43:38.148Z,0.00
2018-06-15T07:44:38.203Z,0.00
2018-06-15T07:45:38.233Z,0.00
2018-06-15T07:46:38.264Z,0.00
2018-06-15T07:47:38.327Z,0.00
2018-06-15T07:48:38.543Z,0.00
2018-06-15T07:49:38.395Z,0.00
2018-06-15T07:50:38.428Z,0.00
2018-06-15T07:51:38.468Z,0.00
2018-06-15T07:52:38.540Z,0.00
2018-06-15T07:53:38.562Z,0.00
2018-06-15T07:54:38.585Z,0.00
2018-06-15T07:55:38.644Z,0.00
2018-06-15T07:56:38.680Z,0.00
2018-06-15T07:57:38.708Z,0.00
2018-06-15T07:58:38.861Z,0.00
2018-06-15T07:59:38.838Z,0.00
2018-06-15T08:00:38.835Z,0.00
2018-06-15T08:01:38.881Z,0.00
2018-06-15T08:02:38.913Z,0.00
2018-06-15T08:03:39.174Z,0.00
2018-06-15T08:04:39.011Z,0.00
2018-06-15T08:05:39.058Z,0.00
2018-06-15T08:06:39.080Z,0.00
2018-06-15T08:07:39.118Z,0.00
2018-06-15T08:08:39.170Z,0.00
2018-06-15T08:09:39.308Z,0.00
2018-06-15T08:10:39.261Z,0.00
2018-06-15T08:11:39.297Z,0.00
2018-06-15T08:12:39.340Z,0.00
2018-06-15T08:13:39.385Z,0.00
2018-06-15T08:14:39.401Z,0.00
2018-06-15T08:15:39.654Z,0.00
2018-06-15T08:16:39.482Z,0.00
2018-06-15T08:17:39.544Z,0.00
2018-06-15T08:18:39.585Z,0.00
2018-06-15T08:19:39.603Z,0.00
2018-06-15T08:20:39.659Z,0.00
2018-06-15T08:21:39.798Z,0.00
2018-06-15T08:22:39.741Z,0.00
2018-06-15T08:23:39.789Z,0.00
2018-06-15T08:24:39.808Z,0.00
2018-06-15T08:25:39.859Z,0.00
2018-06-15T08:26:40.107Z,0.00
2018-06-15T08:27:39.958Z,0.00
2018-06-15T08:28:39.985Z,0.00
2018-06-15T08:29:40.029Z,0.00
2018-06-15T08:30:40.078Z,0.00
2018-06-15T08:31:40.126Z,0.00
2018-06-15T08:32:40.248Z,0.00
2018-06-15T08:33:40.180Z,0.00
2018-06-15T08:34:40.215Z,0.00
2018-06-15T08:35:40.269Z,0.00
2018-06-15T08:36:40.298Z,0.00
2018-06-15T08:37:40.349Z,0.00
2018-06-15T08:38:40.599Z,0.00
2018-06-15T08:39:40.439Z,0.00
2018-06-15T08:40:40.491Z,0.00
2018-06-15T08:41:40.524Z,0.00
2018-06-15T08:42:40.571Z,0.00
2018-06-15T08:43:40.605Z,0.00
2018-06-15T08:44:40.751Z,0.00
2018-06-15T08:45:40.665Z,0.00
2018-06-15T08:46:40.735Z,0.00
2018-06-15T08:47:40.750Z,0.00
2018-06-15T08:48:40.788Z,0.00
2018-06-15T08:49:40.843Z,0.00
2018-06-15T08:50:41.090Z,0.00
2018-06-15T08:51:40.935Z,0.00
2018-06-15T08:52:41.002Z,0.00
2018-06-15T08:53:41.002Z,0.00
2018-06-15T08:54:41.046Z,0.00
2018-06-15T08:55:41.072Z,0.00
2018-06-15T08:56:41.240Z,0.00
2018-06-15T08:57:41.172Z,0.00
2018-06-15T08:58:41.215Z,0.00
2018-06-15T08:59:41.256Z,0.00
2018-06-15T09:00:41.283Z,0.00
2018-06-15T09:01:41.326Z,0.00
2018-06-15T09:02:41.375Z,0.00
2018-06-15T09:03:41.410Z,0.00
2018-06-15T09:04:41.450Z,0.00
2018-06-15T09:05:41.484Z,0.00
2018-06-15T09:06:41.739Z,0.00
2018-06-15T09:07:41.564Z,0.00
2018-06-15T09:08:41.613Z,0.00
2018-06-15T09:09:41.669Z,0.00
2018-06-15T09:10:41.693Z,0.00
2018-06-15T09:11:41.827Z,0.00
2018-06-15T09:12:41.785Z,0.00
2018-06-15T09:13:41.826Z,0.00
2018-06-15T09:14:41.852Z,0.00
2018-06-15T09:15:41.915Z,0.00
2018-06-15T09:16:41.945Z,0.00
2018-06-15T09:17:41.972Z,0.00
2018-06-15T09:18:42.047Z,0.00
2018-06-15T09:19:42.075Z,0.00
2018-06-15T09:20:42.108Z,0.00
2018-06-15T09:21:42.352Z,0.00
2018-06-15T09:22:42.176Z,0.00
2018-06-15T09:23:42.231Z,0.00
2018-06-15T09:24:42.261Z,0.00
2018-06-15T09:25:42.325Z,0.00
2018-06-15T09:26:42.454Z,0.00
2018-06-15T09:27:42.407Z,0.00
2018-06-15T09:28:42.421Z,0.00
2018-06-15T09:29:42.470Z,0.00
2018-06-15T09:30:42.528Z,0.00
2018-06-15T09:31:42.550Z,0.00
2018-06-15T09:32:42.845Z,0.00
2018-06-15T09:33:42.661Z,0.00
2018-06-15T09:34:42.673Z,0.00
2018-06-15T09:35:42.714Z,0.00
2018-06-15T09:36:42.773Z,0.00
2018-06-15T09:37:42.909Z,0.00
2018-06-15T09:38:42.845Z,0.00
2018-06-15T09:39:42.900Z,0.00
2018-06-15T09:40:42.917Z,0.00
2018-06-15T09:41:42.970Z,0.00
2018-06-15T09:42:43.007Z,0.00
2018-06-15T09:43:43.052Z,0.00
2018-06-15T09:44:43.102Z,0.00
2018-06-15T09:45:43.132Z,0.00
2018-06-15T09:46:43.185Z,0.00
2018-06-15T09:47:43.322Z,0.00
2018-06-15T09:48:43.245Z,0.00
2018-06-15T09:49:43.307Z,5.63
2018-06-15T09:50:43.339Z,5.63
2018-06-15T09:51:43.376Z,5.63
2018-06-15T09:52:43.437Z,5.63
2018-06-15T09:53:43.678Z,5.63
2018-06-15T09:54:43.491Z,5.63
2018-06-15T09:55:43.534Z,5.63
2018-06-15T09:56:43.593Z,11.25
2018-06-15T09:57:43.633Z,11.25
2018-06-15T09:58:43.676Z,11.25
2018-06-15T09:59:43.818Z,11.25
2018-06-15T10:00:43.753Z,11.25
2018-06-15T10:01:43.802Z,11.25
2018-06-15T10:02:43.820Z,16.88
2018-06-15T10:03:43.876Z,16.88
2018-06-15T10:04:43.934Z,16.88
2018-06-15T10:05:44.177Z,22.50
2018-06-15T10:06:44.006Z,22.50
2018-06-15T10:07:44.042Z,16.88
2018-06-15T10:08:44.097Z,16.88
2018-06-15T10:09:44.118Z,22.50
2018-06-15T10:10:44.154Z,22.50
2018-06-15T10:11:44.321Z,22.50
2018-06-15T10:12:44.254Z,22.50
2018-06-15T10:13:44.279Z,22.50
2018-06-15T10:14:44.315Z,22.50
2018-06-15T10:15:44.369Z,22.50
2018-06-15T10:16:44.455Z,16.88
2018-06-15T10:17:44.566Z,22.50
2018-06-15T10:18:44.490Z,28.13
2018-06-15T10:19:44.523Z,33.75
2018-06-15T10:20:44.564Z,33.75
2018-06-15T10:21:44.603Z,28.13
2018-06-15T10:22:44.650Z,28.13
2018-06-15T10:23:44.905Z,33.75
2018-06-15T10:24:44.762Z,33.75
2018-06-15T10:25:44.791Z,33.75
2018-06-15T10:26:44.830Z,28.13
2018-06-15T10:27:44.851Z,28.13
2018-06-15T10:28:45.012Z,28.13
2018-06-15T10:29:44.932Z,33.75
2018-06-15T10:30:44.973Z,39.38
2018-06-15T10:31:45.017Z,39.38
2018-06-15T10:32:45.128Z,45.00
2018-06-15T10:33:45.124Z,50.63
2018-06-15T10:34:45.138Z,56.25
2018-06-15T10:35:45.199Z,56.25
2018-06-15T10:36:45.251Z,56.25
2018-06-15T10:37:45.262Z,61.88
2018-06-15T10:38:45.419Z,61.88
2018-06-15T10:39:45.345Z,67.50
2018-06-15T10:40:45.391Z,73.13
2018-06-15T10:41:45.433Z,95.63
2018-06-15T10:42:45.494Z,95.63
2018-06-15T10:43:45.524Z,90.00
2018-06-15T10:44:45.574Z,84.38
2018-06-15T10:45:45.593Z,84.38
2018-06-15T10:46:45.642Z,95.63
2018-06-15T10:47:45.680Z,112.50
2018-06-15T10:48:45.817Z,101.25
2018-06-15T10:49:45.768Z,95.63
2018-06-15T10:50:45.816Z,84.38
2018-06-15T10:51:45.842Z,78.75
2018-06-15T10:52:45.918Z,78.75
2018-06-15T10:53:45.930Z,73.13
2018-06-15T10:54:45.972Z,61.88
2018-06-15T10:55:46.112Z,50.63
2018-06-15T10:56:46.079Z,45.00
2018-06-15T10:57:46.124Z,45.00
2018-06-15T10:58:46.158Z,45.00
2018-06-15T10:59:46.182Z,39.38
2018-06-15T11:00:46.237Z,39.38
2018-06-15T11:01:46.379Z,45.00
2018-06-15T11:02:46.308Z,50.63
2018-06-15T11:03:46.348Z,56.25
2018-06-15T11:04:46.411Z,61.88
2018-06-15T11:05:46.444Z,67.50
2018-06-15T11:06:46.484Z,67.50
2018-06-15T11:07:46.621Z,61.88
2018-06-15T11:08:46.570Z,61.88
2018-06-15T11:09:46.616Z,67.50
2018-06-15T11:10:46.654Z,73.13
2018-06-15T11:11:46.688Z,73.13
2018-06-15T11:12:47.141Z,67.50
2018-06-15T11:13:46.983Z,67.50
2018-06-15T11:14:46.806Z,67.50
2018-06-15T11:15:46.871Z,67.50
2018-06-15T11:16:46.909Z,73.13
2018-06-15T11:17:46.955Z,67.50
2018-06-15T11:18:47.249Z,73.13
2018-06-15T11:19:47.165Z,90.00
2018-06-15T11:20:47.071Z,90.00
2018-06-15T11:21:47.101Z,90.00
2018-06-15T11:22:47.138Z,101.25
2018-06-15T11:23:47.189Z,106.88
2018-06-15T11:24:47.250Z,118.13
2018-06-15T11:25:47.269Z,123.75
2018-06-15T11:26:47.319Z,123.75
2018-06-15T11:27:47.347Z,118.13
2018-06-15T11:28:47.408Z,95.63
2018-06-15T11:29:47.531Z,106.88
2018-06-15T11:30:47.487Z,129.38
2018-06-15T11:31:47.529Z,129.38
2018-06-15T11:32:47.566Z,140.63
2018-06-15T11:33:47.612Z,140.63
2018-06-15T11:34:47.651Z,140.63
2018-06-15T11:35:47.911Z,151.88
2018-06-15T11:36:47.727Z,163.13
2018-06-15T11:37:47.767Z,196.88
2018-06-15T11:38:47.819Z,185.63
2018-06-15T11:39:47.872Z,180.00
2018-06-15T11:40:47.896Z,174.38
2018-06-15T11:41:47.936Z,174.38
2018-06-15T11:42:47.995Z,151.88
2018-06-15T11:43:48.025Z,135.00
2018-06-15T11:44:48.064Z,129.38
2018-06-15T11:45:48.106Z,129.38
2018-06-15T11:46:48.159Z,151.88
2018-06-15T11:47:48.209Z,168.75
2018-06-15T11:48:48.231Z,168.75
2018-06-15T11:49:48.290Z,157.50
2018-06-15T11:50:48.341Z,135.00
2018-06-15T11:51:48.581Z,123.75
2018-06-15T11:52:48.421Z,146.25
2018-06-15T11:53:48.467Z,174.38
2018-06-15T11:54:48.505Z,174.38
2018-06-15T11:55:48.544Z,163.13
2018-06-15T11:56:48.695Z,146.25
2018-06-15T11:57:48.618Z,129.38
2018-06-15T11:58:48.683Z,123.75
2018-06-15T11:59:48.733Z,123.75
2018-06-15T12:00:48.764Z,123.75
2018-06-15T12:01:48.843Z,129.38
2018-06-15T12:02:48.853Z,135.00
2018-06-15T12:03:49.088Z,146.25
2018-06-15T12:04:48.933Z,163.13
2018-06-15T12:05:48.961Z,185.63
2018-06-15T12:06:49.008Z,208.13
2018-06-15T12:07:49.066Z,219.38
2018-06-15T12:08:49.169Z,230.63
2018-06-15T12:09:49.391Z,230.63
2018-06-15T12:10:49.189Z,202.50
2018-06-15T12:11:49.235Z,168.75
2018-06-15T12:12:49.278Z,157.50
2018-06-15T12:13:49.323Z,157.50
2018-06-15T12:14:49.348Z,174.38
2018-06-15T12:15:49.493Z,185.63
2018-06-15T12:16:49.435Z,202.50
2018-06-15T12:17:49.483Z,225.00
2018-06-15T12:18:49.532Z,258.75
2018-06-15T12:19:49.590Z,270.00
2018-06-15T12:20:49.724Z,258.75
2018-06-15T12:21:49.652Z,292.50
2018-06-15T12:22:49.724Z,326.25
2018-06-15T12:23:49.754Z,303.75
2018-06-15T12:24:49.780Z,270.00
2018-06-15T12:25:49.839Z,258.75
2018-06-15T12:26:49.973Z,275.63
2018-06-15T12:27:49.912Z,303.75
2018-06-15T12:28:49.962Z,326.25
2018-06-15T12:29:50.007Z,331.88
2018-06-15T12:30:50.044Z,326.25
2018-06-15T12:31:50.096Z,337.50
2018-06-15T12:32:50.276Z,343.13
2018-06-15T12:33:50.185Z,354.38
2018-06-15T12:34:50.215Z,348.75
2018-06-15T12:35:50.261Z,326.25
2018-06-15T12:36:50.333Z,275.63
2018-06-15T12:37:50.349Z,264.38
2018-06-15T12:38:50.413Z,303.75
2018-06-15T12:39:50.457Z,348.75
2018-06-15T12:40:50.497Z,315.00
2018-06-15T12:41:50.526Z,258.75
2018-06-15T12:42:50.585Z,241.88
2018-06-15T12:43:50.627Z,241.88
2018-06-15T12:44:50.673Z,225.00
2018-06-15T12:45:50.797Z,213.75
2018-06-15T12:46:50.773Z,185.63
2018-06-15T12:47:50.800Z,191.25
2018-06-15T12:48:50.851Z,191.25
2018-06-15T12:49:50.893Z,202.50
2018-06-15T12:50:50.928Z,196.88
2018-06-15T12:51:51.121Z,174.38
2018-06-15T12:52:51.034Z,174.38
2018-06-15T12:53:51.078Z,146.25
2018-06-15T12:54:51.128Z,118.13
2018-06-15T12:55:51.163Z,101.25
2018-06-15T12:56:51.197Z,106.88
2018-06-15T12:57:51.446Z,123.75
2018-06-15T12:58:51.290Z,146.25
2018-06-15T12:59:51.334Z,174.38
2018-06-15T13:00:51.386Z,196.88
2018-06-15T13:01:51.435Z,208.13
2018-06-15T13:02:51.572Z,241.88
2018-06-15T13:03:51.511Z,286.88
2018-06-15T13:04:51.567Z,320.63
2018-06-15T13:05:51.585Z,320.63
2018-06-15T13:06:51.629Z,337.50
2018-06-15T13:07:51.684Z,326.25
2018-06-15T13:08:51.816Z,309.38